Terminal Aerodrome Forecast
Issued by NWS Wilmington, NC

Home | Current Version | Previous Version | Text Only | Print | Product List | Glossary On
Versions: 1 2 3 4 5 6 7 8 9 10 11 12 13 14 15
000
FTUS42 KILM 271729
TAFILM
TAF
KILM 271729Z 2718/2818 16009KT P6SM FEW030
     FM280100 21004KT P6SM FEW250
     FM280800 22004KT P6SM FEW007
     FM281300 20010KT P6SM SCT025=

USA.gov is the U.S. government's official web portal to all federal, state and local government web resources and services.